aviador You're here:

LEVC Decoded Metar

VALENCIA in SPAIN
Report Time2014-09-16 11:00:00
UTC Time2014-09-16 11:23:58
Flight Rules vfr VFR
Wind090° at 08 kt
W.Decomp.*RWY 12: 7.0 kt HW 3.9 kt LCW
W.Rank090° ranks 8
Current wind is above 090° avg. (7.2)
Visibility9999 m
Phenomena:N/A
Clouds:Few 025 Hf
Scattered 030 Hf
Expected CloudBase > 3,600 ft AGL from Temp-Dew spread
CeilingNone
Temp28°C (ISA +13)
Dew Point19°C (58% RH)
Heat Index29.2°C
QNH1011 hPa
Density Alt2,103 ft
Elevation203 ft
Report Wrong Elevation
Raw Report
METAR LEVC 161100Z 09008KT 050V120 9999 FEW025 SCT030 28/19 Q1011 NOSIG=

Flight School in Barcelona

Extra information for LEVC:More info

Metar Taf Metar & Taf Last 4 Metars F.Rules Stats Wind Profile Meteogram Temp Stats Airport Information Weather charts Add Link Nearby VenuesMetar ALERT Operation Metar Decoded Social comments

Webcam Valencia